Time;durP1;ratioP1;P1;durP2;ratioP2;P2;SDS_P1;SDS_P2;PMS_P1;PMS_P2;Temp;Humidity;BMP_temperature;BMP_pressure;BME280_temperature;BME280_humidity;BME280_pressure;Samples;Min_cycle;Max_cycle;Signal;HPM_P1;HPM_P2
2022/05/29 00:00:50;;;;;;;;;;;;;;;26.09;49.81;97664.88;2088697;28;19928;-49
2022/05/29 00:01:51;;;;;;;;;;;;;;;26.08;49.71;97666.78;2085468;28;19932;-49
2022/05/29 00:02:53;;;;;;;;;;;;;;;26.08;49.42;97666.78;2089170;28;19934;-49
2022/05/29 00:03:53;;;;;;;;;;;;;;;26.11;49.47;97670.06;2086042;28;19956;-49
2022/05/29 00:04:55;;;;;;;;;;;;;;;26.08;49.50;97664.06;2086349;28;19936;-51
2022/05/29 00:05:55;;;;;;;;;;;;;;;26.05;49.53;97670.06;2086571;28;20276;-48
2022/05/29 00:06:58;;;;;;;;;;;;;;;26.07;49.91;97665.13;2087297;28;19939;-53
2022/05/29 00:08:00;;;;;;;;;;;;;;;26.09;49.60;97673.03;2087834;28;19983;-48
2022/05/29 00:09:01;;;;;;;;;;;;;;;26.07;49.74;97667.84;2087167;28;20379;-52
2022/05/29 00:10:04;;;;;;;;;;;;;;;26.06;49.80;97666.25;2081644;28;19928;-49
2022/05/29 00:11:06;;;;;;;;;;;;;;;26.07;49.71;97667.06;2088374;28;19967;-49
2022/05/29 00:12:09;;;;;;;;;;;;;;;26.11;49.49;97672.78;2088536;28;19954;-50
2022/05/29 00:13:11;;;;;;;;;;;;;;;26.08;49.49;97661.34;2087331;28;19932;-52
2022/05/29 00:14:13;;;;;;;;;;;;;;;26.07;49.84;97658.91;2089266;28;19924;-50
2022/05/29 00:15:14;;;;;;;;;;;;;;;26.08;49.64;97658.63;2088898;28;19963;-52
2022/05/29 00:16:16;;;;;;;;;;;;;;;26.06;49.84;97649.94;2089769;28;20370;-49
2022/05/29 00:17:17;;;;;;;;;;;;;;;26.11;49.78;97653.75;2090161;28;19940;-48
2022/05/29 00:18:19;;;;;;;;;;;;;;;26.10;50.11;97657.53;2088899;28;20012;-49
2022/05/29 00:19:21;;;;;;;;;;;;;;;26.10;49.72;97650.19;2088331;28;20521;-48
2022/05/29 00:20:21;;;;;;;;;;;;;;;26.08;49.50;97653.19;2088503;28;19951;-49
2022/05/29 00:21:23;;;;;;;;;;;;;;;26.11;49.65;97651.84;2090842;28;20043;-48
2022/05/29 00:22:23;;;;;;;;;;;;;;;26.10;50.02;97654.81;2087232;28;20342;-49
2022/05/29 00:23:26;;;;;;;;;;;;;;;26.11;49.63;97656.47;2087517;28;20023;-49
2022/05/29 00:24:27;;;;;;;;;;;;;;;26.10;49.88;97649.38;2084867;28;19929;-51
2022/05/29 00:25:28;;;;;;;;;;;;;;;26.08;49.87;97653.19;2088714;28;19964;-50
2022/05/29 00:26:29;;;;;;;;;;;;;;;26.07;49.58;97651.56;2087830;28;19936;-50
2022/05/29 00:27:30;;;;;;;;;;;;;;;26.10;49.64;97650.19;2088634;28;19939;-49
2022/05/29 00:28:33;;;;;;;;;;;;;;;26.07;49.72;97650.75;2088430;28;19932;-49
2022/05/29 00:29:35;;;;;;;;;;;;;;;26.08;50.04;97658.63;2089898;28;20007;-52
2022/05/29 00:30:37;;;;;;;;;;;;;;;26.07;49.61;97646.13;2089225;28;20438;-51
2022/05/29 00:31:37;;;;;;;;;;;;;;;26.06;49.88;97649.94;2090350;28;19947;-51
2022/05/29 00:32:39;;;;;;;;;;;;;;;26.05;49.80;97648.31;2089797;28;19929;-48
2022/05/29 00:33:39;;;;;;;;;;;;;;;26.04;49.69;97643.16;2089600;28;19931;-48
2022/05/29 00:34:41;;;;;;;;;;;;;;;26.05;49.61;97647.50;2087970;28;19924;-49
2022/05/29 00:35:42;;;;;;;;;;;;;;;26.03;49.72;97647.78;2088222;28;19932;-50
2022/05/29 00:36:44;;;;;;;;;;;;;;;26.04;49.29;97648.59;2090085;28;19925;-48
2022/05/29 00:37:47;;;;;;;;;;;;;;;26.02;49.26;97643.44;2088987;28;20020;-49
2022/05/29 00:38:50;;;;;;;;;;;;;;;25.98;49.06;97650.50;2086820;28;19987;-48
2022/05/29 00:39:50;;;;;;;;;;;;;;;25.97;49.31;97646.16;2088052;28;19924;-49
2022/05/29 00:40:55;;;;;;;;;;;;;;;26.01;49.40;97649.94;2089155;28;19939;-51
2022/05/29 00:41:55;;;;;;;;;;;;;;;25.99;49.19;97641.28;2089032;28;19924;-50
2022/05/29 00:42:57;;;;;;;;;;;;;;;25.98;49.23;97646.97;2087511;28;19964;-52
2022/05/29 00:44:15;;;;;;;;;;;;;;;25.98;49.11;97646.97;2088313;28;20303;-51
2022/05/29 00:45:21;;;;;;;;;;;;;;;25.95;48.99;97645.63;2082853;28;19939;-50
2022/05/29 00:46:21;;;;;;;;;;;;;;;25.91;48.59;97646.44;2087961;28;19928;-49
2022/05/29 00:47:24;;;;;;;;;;;;;;;25.90;49.12;97645.63;2089263;28;19929;-49
2022/05/29 00:48:25;;;;;;;;;;;;;;;25.90;48.89;97647.53;2089900;28;20535;-51
2022/05/29 00:49:28;;;;;;;;;;;;;;;25.89;49.09;97644.00;2089114;28;19933;-48
2022/05/29 00:50:28;;;;;;;;;;;;;;;25.89;48.84;97645.91;2090360;28;19924;-49
2022/05/29 00:51:30;;;;;;;;;;;;;;;25.89;48.75;97643.19;2087594;28;19932;-49
2022/05/29 00:52:32;;;;;;;;;;;;;;;25.90;48.99;97656.50;2090018;28;19935;-50
2022/05/29 00:53:33;;;;;;;;;;;;;;;25.86;48.63;97652.72;2088226;28;20522;-48
2022/05/29 00:54:37;;;;;;;;;;;;;;;25.85;48.64;97653.78;2086712;28;19929;-51
2022/05/29 00:55:38;;;;;;;;;;;;;;;25.86;49.08;97658.16;2088232;28;20749;-49
2022/05/29 00:56:40;;;;;;;;;;;;;;;25.85;49.12;97648.34;2089083;28;19966;-49
2022/05/29 00:57:44;;;;;;;;;;;;;;;25.88;48.93;97653.22;2087920;28;20585;-51
2022/05/29 00:58:45;;;;;;;;;;;;;;;25.87;48.79;97646.19;2086300;28;19982;-51
2022/05/29 00:59:47;;;;;;;;;;;;;;;25.87;48.59;97651.63;2088802;28;19928;-48
2022/05/29 01:00:50;;;;;;;;;;;;;;;25.84;49.03;97650.25;2088211;28;19932;-48
2022/05/29 01:01:52;;;;;;;;;;;;;;;25.83;48.65;97650.56;2087329;28;19929;-48
2022/05/29 01:02:55;;;;;;;;;;;;;;;25.87;48.47;97645.38;2088869;28;19929;-50
2022/05/29 01:03:56;;;;;;;;;;;;;;;25.87;48.59;97651.63;2088395;28;20412;-54
2022/05/29 01:04:57;;;;;;;;;;;;;;;25.83;48.50;97647.84;2089674;28;19929;-49
2022/05/29 01:05:58;;;;;;;;;;;;;;;25.81;48.90;97652.69;2089834;28;19955;-48
2022/05/29 01:07:02;;;;;;;;;;;;;;;25.82;48.67;97651.59;2089184;28;19929;-49
2022/05/29 01:08:05;;;;;;;;;;;;;;;25.81;48.75;97645.34;2088496;28;19928;-53
2022/05/29 01:09:09;;;;;;;;;;;;;;;25.79;49.09;97644.00;2084629;28;19932;-49
2022/05/29 01:10:09;;;;;;;;;;;;;;;25.79;49.31;97647.53;2085289;28;21225;-48
2022/05/29 01:11:25;;;;;;;;;;;;;;;25.78;48.90;97648.63;2086649;28;19938;-49
2022/05/29 01:12:33;;;;;;;;;;;;;;;25.78;48.75;97645.09;2088434;28;19960;-51
2022/05/29 01:13:42;;;;;;;;;;;;;;;25.83;49.13;97639.69;2089771;28;20033;-49
2022/05/29 01:14:51;;;;;;;;;;;;;;;25.82;48.67;97640.72;2089677;28;19932;-50
2022/05/29 01:15:57;;;;;;;;;;;;;;;25.83;49.00;97642.41;2089412;28;19925;-50
2022/05/29 01:17:04;;;;;;;;;;;;;;;25.83;48.76;97639.69;2089033;28;20486;-49
2022/05/29 01:18:13;;;;;;;;;;;;;;;25.82;48.80;97641.53;2089854;28;19935;-51
2022/05/29 01:19:34;;;;;;;;;;;;;;;25.82;49.14;97644.25;2084948;28;19925;-51
2022/05/29 01:20:43;;;;;;;;;;;;;;;25.84;49.24;97644.81;2087629;28;19968;-49
2022/05/29 01:22:03;;;;;;;;;;;;;;;25.83;49.25;97645.13;2090070;28;20897;-50
2022/05/29 01:23:22;;;;;;;;;;;;;;;25.83;49.13;97640.50;2088253;28;20360;-52
2022/05/29 01:24:34;;;;;;;;;;;;;;;25.81;48.96;97637.19;2087360;28;19956;-51
2022/05/29 01:25:56;;;;;;;;;;;;;;;25.80;49.14;97635.59;2088093;28;20522;-51
2022/05/29 01:27:12;;;;;;;;;;;;;;;25.83;49.11;97640.50;2065345;28;20665;-49
2022/05/29 01:28:16;;;;;;;;;;;;;;;25.84;49.08;97639.41;2089545;28;19925;-51
2022/05/29 01:29:19;;;;;;;;;;;;;;;25.82;49.24;97644.25;2088772;28;19933;-49
2022/05/29 01:30:21;;;;;;;;;;;;;;;25.81;48.81;97641.81;2090208;28;20401;-49
2022/05/29 01:31:30;;;;;;;;;;;;;;;25.77;48.80;97644.28;2088684;28;19963;-52
2022/05/29 01:32:35;;;;;;;;;;;;;;;25.78;49.14;97640.47;2082783;28;19972;-51
2022/05/29 01:33:41;;;;;;;;;;;;;;;25.79;49.44;97644.00;2089265;28;19924;-48
2022/05/29 01:34:45;;;;;;;;;;;;;;;25.78;49.25;97643.19;2089716;28;19936;-50
2022/05/29 01:35:50;;;;;;;;;;;;;;;25.81;49.23;97644.53;2088982;28;20709;-50
2022/05/29 01:36:54;;;;;;;;;;;;;;;25.81;49.28;97641.81;2085629;28;19925;-51
2022/05/29 01:38:00;;;;;;;;;;;;;;;25.78;49.15;97639.66;2089127;28;20272;-50
2022/05/29 01:39:06;;;;;;;;;;;;;;;25.81;49.18;97642.63;2089121;28;19929;-53
2022/05/29 01:40:11;;;;;;;;;;;;;;;25.78;49.08;97643.19;2086204;28;19932;-50
2022/05/29 01:41:14;;;;;;;;;;;;;;;25.80;49.42;97630.16;2087190;28;19955;-51
2022/05/29 01:42:18;;;;;;;;;;;;;;;25.81;49.08;97636.38;2086938;28;20391;-50
2022/05/29 01:43:22;;;;;;;;;;;;;;;25.80;49.25;97635.59;2088974;28;20458;-52
2022/05/29 01:44:29;;;;;;;;;;;;;;;25.83;49.39;97634.25;2089911;28;19982;-49
2022/05/29 01:45:53;;;;;;;;;;;;;;;25.81;49.63;97631.75;2089538;28;19990;-52
2022/05/29 01:46:56;;;;;;;;;;;;;;;25.83;49.14;97623.38;2087074;28;19948;-50
2022/05/29 01:48:01;;;;;;;;;;;;;;;25.83;49.10;97620.66;2088991;28;19944;-51
2022/05/29 01:49:06;;;;;;;;;;;;;;;25.81;49.42;97628.25;2088557;28;20329;-51
2022/05/29 01:50:08;;;;;;;;;;;;;;;25.82;49.08;97629.84;2087424;28;19939;-51
2022/05/29 01:51:13;;;;;;;;;;;;;;;25.82;49.46;97625.22;2087690;28;19925;-49
2022/05/29 01:52:17;;;;;;;;;;;;;;;25.82;49.52;97629.84;2089053;28;19968;-49
2022/05/29 01:53:21;;;;;;;;;;;;;;;25.82;49.22;97630.66;2089313;28;20256;-49
2022/05/29 01:54:24;;;;;;;;;;;;;;;25.81;49.14;97631.75;2088171;28;19939;-50
2022/05/29 01:55:29;;;;;;;;;;;;;;;25.83;48.96;97631.53;2084483;28;20047;-50
2022/05/29 01:56:32;;;;;;;;;;;;;;;25.85;49.32;97621.19;2088093;28;20413;-52
2022/05/29 01:57:36;;;;;;;;;;;;;;;25.84;49.00;97628.53;2088723;28;20577;-50
2022/05/29 01:58:40;;;;;;;;;;;;;;;25.81;48.96;97623.63;2087638;28;20531;-50
2022/05/29 01:59:45;;;;;;;;;;;;;;;25.79;48.98;97619.53;2087206;28;19941;-50
2022/05/29 02:00:47;;;;;;;;;;;;;;;25.81;48.88;97628.25;2088203;28;19924;-52
2022/05/29 02:01:52;;;;;;;;;;;;;;;25.81;48.81;97630.97;2088830;28;20344;-50
2022/05/29 02:02:56;;;;;;;;;;;;;;;25.81;48.66;97631.75;2088522;28;19929;-50
2022/05/29 02:03:58;;;;;;;;;;;;;;;25.78;48.95;97645.09;2087770;28;20350;-50
2022/05/29 02:05:03;;;;;;;;;;;;;;;25.73;49.11;97632.31;2089149;28;20469;-50
2022/05/29 02:06:05;;;;;;;;;;;;;;;25.73;49.21;97631.50;2087523;28;20452;-52
2022/05/29 02:08:33;;;;;;;;;;;;;;;25.74;49.21;97622.28;2087365;28;19932;-51
2022/05/29 02:09:38;;;;;;;;;;;;;;;25.73;49.10;97623.38;2085805;28;21348;-49
2022/05/29 02:10:43;;;;;;;;;;;;;;;25.71;48.70;97631.78;2087747;28;19979;-51
2022/05/29 02:11:49;;;;;;;;;;;;;;;25.74;48.57;97624.97;2086990;28;19958;-51
2022/05/29 02:12:54;;;;;;;;;;;;;;;25.73;49.09;97620.66;2088701;28;20416;-50
2022/05/29 02:14:00;;;;;;;;;;;;;;;25.71;48.79;97625.53;2088980;28;19954;-53
2022/05/29 02:15:05;;;;;;;;;;;;;;;25.70;49.06;97623.91;2088248;28;20318;-51
2022/05/29 02:16:08;;;;;;;;;;;;;;;25.66;48.66;97612.81;2088915;28;19928;-50
2022/05/29 02:17:10;;;;;;;;;;;;;;;25.68;48.64;97615.22;2088456;28;19936;-49
2022/05/29 02:18:17;;;;;;;;;;;;;;;25.65;48.37;97619.31;2089334;28;19924;-52
2022/05/29 02:19:19;;;;;;;;;;;;;;;25.66;48.71;97609.25;2088622;28;19935;-49
2022/05/29 02:20:25;;;;;;;;;;;;;;;25.66;48.43;97611.97;2084109;28;19960;-52
2022/05/29 02:21:29;;;;;;;;;;;;;;;25.66;48.55;97610.09;2087146;28;20137;-49
2022/05/29 02:22:31;;;;;;;;;;;;;;;25.63;48.77;97606.00;2086858;28;19925;-50
2022/05/29 02:23:34;;;;;;;;;;;;;;;25.64;48.95;97604.09;2088878;28;19971;-50
2022/05/29 02:24:38;;;;;;;;;;;;;;;25.64;48.99;97604.09;2086272;28;19931;-52
2022/05/29 02:25:39;;;;;;;;;;;;;;;25.69;48.73;97601.38;2087929;28;19929;-51
2022/05/29 02:26:43;;;;;;;;;;;;;;;25.66;48.76;97591.06;2087851;28;19928;-51
2022/05/29 02:27:46;;;;;;;;;;;;;;;25.64;48.63;97587.81;2088175;28;19924;-51
2022/05/29 02:28:50;;;;;;;;;;;;;;;25.67;49.22;97581.84;2086606;28;20016;-51
2022/05/29 02:29:53;;;;;;;;;;;;;;;25.70;48.95;97583.19;2087652;28;20414;-48
2022/05/29 02:30:59;;;;;;;;;;;;;;;25.68;48.76;97579.91;2088702;28;19932;-52
2022/05/29 02:32:03;;;;;;;;;;;;;;;25.69;48.84;97576.94;2086966;28;19931;-52
2022/05/29 02:33:09;;;;;;;;;;;;;;;25.70;48.73;97569.59;2089077;28;19936;-51
2022/05/29 02:34:15;;;;;;;;;;;;;;;25.71;48.92;97572.03;2088950;28;19967;-50
2022/05/29 02:35:19;;;;;;;;;;;;;;;25.69;49.26;97581.56;2089250;28;21140;-49
2022/05/29 02:36:23;;;;;;;;;;;;;;;25.73;48.94;97585.34;2085720;28;19929;-49
2022/05/29 02:37:29;;;;;;;;;;;;;;;25.71;49.18;97580.19;2089126;28;20580;-49
2022/05/29 02:38:35;;;;;;;;;;;;;;;25.71;49.41;97590.22;2086222;28;19925;-51
2022/05/29 02:39:47;;;;;;;;;;;;;;;25.73;49.51;97599.72;2087208;28;20027;-52
2022/05/29 02:40:51;;;;;;;;;;;;;;;25.75;49.21;97600.28;2088014;28;19978;-50
2022/05/29 02:42:05;;;;;;;;;;;;;;;25.74;49.38;97597.81;2087545;28;19932;-53
2022/05/29 02:43:10;;;;;;;;;;;;;;;25.76;49.45;97601.91;2088236;28;19971;-52
2022/05/29 02:44:18;;;;;;;;;;;;;;;25.78;49.76;97609.78;2089177;28;19928;-51
2022/05/29 02:45:23;;;;;;;;;;;;;;;25.78;49.49;97602.44;2088640;28;19971;-52
2022/05/29 02:46:29;;;;;;;;;;;;;;;25.77;49.33;97602.69;2088751;28;19925;-52
2022/05/29 02:47:35;;;;;;;;;;;;;;;25.75;49.28;97600.28;2085126;28;19924;-52
2022/05/29 02:48:41;;;;;;;;;;;;;;;25.77;49.61;97589.13;2086715;28;19958;-52
2022/05/29 02:49:43;;;;;;;;;;;;;;;25.79;49.65;97587.75;2089100;28;20015;-50
2022/05/29 02:50:49;;;;;;;;;;;;;;;25.81;49.78;97582.06;2088063;28;20827;-52
2022/05/29 02:51:51;;;;;;;;;;;;;;;25.79;49.92;97584.25;2088507;28;19928;-53
2022/05/29 02:52:53;;;;;;;;;;;;;;;25.79;49.75;97586.94;2088260;28;19932;-52
2022/05/29 02:53:53;;;;;;;;;;;;;;;25.79;49.86;97585.03;2088730;28;19939;-51
2022/05/29 02:54:56;;;;;;;;;;;;;;;25.78;49.91;97588.06;2087475;28;20068;-51
2022/05/29 02:55:58;;;;;;;;;;;;;;;25.78;49.64;97588.06;2086535;28;19972;-52
2022/05/29 02:57:00;;;;;;;;;;;;;;;25.78;49.64;97586.16;2089156;28;19929;-53
2022/05/29 02:58:03;;;;;;;;;;;;;;;25.77;49.74;97591.84;2088096;28;20015;-51
2022/05/29 02:59:03;;;;;;;;;;;;;;;25.77;49.72;97594.56;2088993;28;19964;-52
2022/05/29 03:00:11;;;;;;;;;;;;;;;25.80;49.66;97602.19;2089702;28;19928;-51
2022/05/29 03:01:25;;;;;;;;;;;;;;;25.79;49.80;97593.19;2088764;28;19955;-50
2022/05/29 03:02:33;;;;;;;;;;;;;;;25.82;50.14;97597.25;2089107;28;19944;-50
2022/05/29 03:03:37;;;;;;;;;;;;;;;25.79;49.88;97601.34;2089326;28;19974;-49
2022/05/29 03:04:43;;;;;;;;;;;;;;;25.79;49.73;97600.53;2086776;28;19932;-49
2022/05/29 03:05:50;;;;;;;;;;;;;;;25.79;49.75;97601.34;2085648;28;20015;-52
2022/05/29 03:06:53;;;;;;;;;;;;;;;25.76;49.68;97595.66;2088573;28;19929;-49
2022/05/29 03:08:03;;;;;;;;;;;;;;;25.78;49.46;97598.91;2086975;28;19936;-53
2022/05/29 03:09:08;;;;;;;;;;;;;;;25.79;49.61;97592.38;2086099;28;19929;-50
2022/05/29 03:10:13;;;;;;;;;;;;;;;25.79;49.50;97585.03;2087922;28;19934;-49
2022/05/29 03:11:19;;;;;;;;;;;;;;;25.80;49.88;97585.88;2085145;28;19925;-50
2022/05/29 03:12:27;;;;;;;;;;;;;;;25.81;49.67;97579.34;2088416;28;20016;-49
2022/05/29 03:13:33;;;;;;;;;;;;;;;25.81;49.97;97577.44;2088140;28;19932;-52
2022/05/29 03:14:39;;;;;;;;;;;;;;;25.83;50.19;97569.06;2089468;28;19929;-52
2022/05/29 03:15:57;;;;;;;;;;;;;;;25.80;49.72;97566.88;2085222;28;20287;-51
2022/05/29 03:17:09;;;;;;;;;;;;;;;25.79;50.15;97565.22;2087756;28;19932;-52
2022/05/29 03:18:16;;;;;;;;;;;;;;;25.78;50.32;97567.13;2087334;28;19997;-50
2022/05/29 03:19:25;;;;;;;;;;;;;;;25.79;50.05;97567.94;2087902;28;19937;-50
2022/05/29 03:20:35;;;;;;;;;;;;;;;25.79;49.77;97562.50;2087884;28;20380;-52
2022/05/29 03:21:43;;;;;;;;;;;;;;;25.81;50.05;97555.72;2088935;28;19972;-52
2022/05/29 03:22:51;;;;;;;;;;;;;;;25.81;50.31;97558.44;2088283;28;19925;-54
2022/05/29 03:23:55;;;;;;;;;;;;;;;25.83;49.87;97560.91;2074901;28;19928;-52
2022/05/29 03:25:01;;;;;;;;;;;;;;;25.83;50.13;97550.06;2083955;28;19924;-53
2022/05/29 03:26:05;;;;;;;;;;;;;;;25.85;50.49;97545.13;2084727;28;19929;-53
2022/05/29 03:27:10;;;;;;;;;;;;;;;25.84;50.37;97538.88;2088982;28;19947;-50
2022/05/29 03:28:13;;;;;;;;;;;;;;;25.83;50.04;97536.47;2088358;28;19935;-51
2022/05/29 03:29:18;;;;;;;;;;;;;;;25.83;50.16;97537.28;2089965;28;19928;-50
2022/05/29 03:30:21;;;;;;;;;;;;;;;25.82;50.39;97530.16;2085234;28;20848;-50
2022/05/29 03:31:24;;;;;;;;;;;;;;;25.82;50.27;97532.06;2089412;28;19940;-51
2022/05/29 03:32:28;;;;;;;;;;;;;;;25.82;49.94;97529.34;2089534;28;19928;-49
2022/05/29 03:33:28;;;;;;;;;;;;;;;25.82;50.03;97526.63;2085396;28;19928;-49
2022/05/29 03:34:30;;;;;;;;;;;;;;;25.82;49.87;97530.16;2088145;28;19963;-50
2022/05/29 03:35:32;;;;;;;;;;;;;;;25.80;50.19;97526.13;2089545;28;19925;-55
2022/05/29 03:36:34;;;;;;;;;;;;;;;25.80;50.34;97523.41;2086836;28;19952;-51
2022/05/29 03:37:35;;;;;;;;;;;;;;;25.80;49.79;97523.41;2087775;28;19929;-51
2022/05/29 03:38:36;;;;;;;;;;;;;;;25.82;50.16;97526.63;2086623;28;19935;-50
2022/05/29 03:39:37;;;;;;;;;;;;;;;25.80;49.99;97517.97;2089259;28;19964;-50
2022/05/29 03:40:39;;;;;;;;;;;;;;;25.78;49.73;97518.25;2087446;28;19943;-54
2022/05/29 03:41:43;;;;;;;;;;;;;;;25.79;49.93;97516.34;2081968;28;19933;-54
2022/05/29 03:42:45;;;;;;;;;;;;;;;25.77;49.91;97503.06;2086775;28;19936;-53
2022/05/29 03:43:45;;;;;;;;;;;;;;;25.78;49.56;97503.84;2088624;28;19932;-51
2022/05/29 03:44:47;;;;;;;;;;;;;;;25.79;49.78;97497.31;2088456;28;20043;-53
2022/05/29 03:45:47;;;;;;;;;;;;;;;25.77;49.49;97494.06;2088633;28;19932;-53
2022/05/29 03:46:49;;;;;;;;;;;;;;;25.78;49.52;97493.00;2089915;28;19968;-53
2022/05/29 03:47:51;;;;;;;;;;;;;;;25.79;49.57;97484.56;2091612;28;19929;-54
2022/05/29 03:48:53;;;;;;;;;;;;;;;25.79;49.34;97483.75;2085314;28;19935;-52
2022/05/29 03:49:53;;;;;;;;;;;;;;;25.78;49.03;97480.22;2090060;28;19929;-52
2022/05/29 03:50:55;;;;;;;;;;;;;;;25.76;49.34;97476.16;2089748;28;19929;-52
2022/05/29 03:51:57;;;;;;;;;;;;;;;25.77;49.19;97475.88;2087604;28;19931;-57
2022/05/29 03:53:00;;;;;;;;;;;;;;;25.78;49.12;97471.25;2089877;28;19933;-55
2022/05/29 03:54:02;;;;;;;;;;;;;;;25.79;49.21;97475.59;2090192;28;19925;-54
2022/05/29 03:55:04;;;;;;;;;;;;;;;25.78;49.27;97482.94;2086371;28;19928;-53
2022/05/29 03:56:05;;;;;;;;;;;;;;;25.80;49.12;97475.34;2087368;28;20015;-55
2022/05/29 03:57:06;;;;;;;;;;;;;;;25.78;49.03;97482.94;2085485;28;20020;-53
2022/05/29 03:58:08;;;;;;;;;;;;;;;25.78;49.20;97484.84;2089020;28;20047;-57
2022/05/29 03:59:08;;;;;;;;;;;;;;;25.78;49.48;97485.66;2089562;28;19928;-54
2022/05/29 04:00:11;;;;;;;;;;;;;;;25.78;49.36;97490.28;2088634;28;21250;-52
2022/05/29 04:01:12;;;;;;;;;;;;;;;25.80;49.27;97483.47;2089956;28;19951;-52
2022/05/29 04:02:14;;;;;;;;;;;;;;;25.77;49.40;97489.47;2090466;28;19931;-52
2022/05/29 04:03:15;;;;;;;;;;;;;;;25.79;49.54;97489.19;2086167;28;19932;-52
2022/05/29 04:04:17;;;;;;;;;;;;;;;25.79;49.66;97491.91;2090810;28;20014;-52
2022/05/29 04:05:19;;;;;;;;;;;;;;;25.78;49.59;97491.09;2090504;28;19940;-54
2022/05/29 04:06:20;;;;;;;;;;;;;;;25.77;49.34;97492.19;2090110;28;20509;-52
2022/05/29 04:12:03;;;;;;;;;;;;;;;25.75;49.73;97486.22;2089983;28;20632;-57
2022/05/29 04:12:43;;;;;;;;;;;;;;;25.79;50.07;97491.91;2055866;28;19973;-54
2022/05/29 04:13:45;;;;;;;;;;;;;;;25.78;49.64;97493.00;2088828;28;19925;-57
2022/05/29 04:14:46;;;;;;;;;;;;;;;25.78;49.26;97485.66;2088707;28;19936;-53
2022/05/29 04:15:47;;;;;;;;;;;;;;;25.78;49.38;97501.13;2089957;28;19924;-52
2022/05/29 04:16:48;;;;;;;;;;;;;;;25.79;49.59;97494.59;2088877;28;20418;-49
2022/05/29 04:17:49;;;;;;;;;;;;;;;25.80;49.91;97507.13;2086301;28;19928;-51
2022/05/29 04:18:52;;;;;;;;;;;;;;;25.79;49.63;97508.19;2087903;28;19940;-52
2022/05/29 04:19:54;;;;;;;;;;;;;;;25.81;49.72;97501.38;2088481;28;19971;-52
2022/05/29 04:20:54;;;;;;;;;;;;;;;25.81;49.63;97511.44;2090675;28;20886;-55
2022/05/29 04:21:56;;;;;;;;;;;;;;;25.81;49.65;97520.41;2090212;28;19971;-55
2022/05/29 04:22:56;;;;;;;;;;;;;;;25.80;50.06;97526.94;2089238;28;19925;-52
2022/05/29 04:23:58;;;;;;;;;;;;;;;25.80;50.16;97521.50;2089974;28;19950;-53
2022/05/29 04:24:59;;;;;;;;;;;;;;;25.81;50.40;97522.31;2089369;28;19933;-57
2022/05/29 04:26:00;;;;;;;;;;;;;;;25.81;50.11;97522.31;2087161;28;19932;-54
2022/05/29 04:27:01;;;;;;;;;;;;;;;25.81;50.14;97522.31;2087208;28;19929;-55
2022/05/29 04:28:02;;;;;;;;;;;;;;;25.81;50.18;97522.31;2089895;28;19929;-57
2022/05/29 04:29:03;;;;;;;;;;;;;;;25.82;50.22;97523.94;2085552;28;19932;-52
2022/05/29 04:30:06;;;;;;;;;;;;;;;25.81;50.23;97528.56;2090089;28;19936;-52
2022/05/29 04:31:06;;;;;;;;;;;;;;;25.79;50.47;97524.47;2089386;28;20016;-54
2022/05/29 04:33:28;;;;;;;;;;;;;;;25.81;50.23;97522.31;2086427;28;19928;-53
2022/05/29 04:34:30;;;;;;;;;;;;;;;25.81;50.08;97522.31;2086571;28;20941;-56
2022/05/29 04:35:33;;;;;;;;;;;;;;;25.80;50.19;97521.50;2088022;28;19925;-54
2022/05/29 04:36:33;;;;;;;;;;;;;;;25.81;50.63;97517.69;2085955;28;19971;-54
2022/05/29 04:37:35;;;;;;;;;;;;;;;25.81;50.34;97516.88;2089680;28;19925;-51
2022/05/29 04:38:35;;;;;;;;;;;;;;;25.81;50.14;97525.03;2086696;28;19935;-54
2022/05/29 04:39:37;;;;;;;;;;;;;;;25.80;50.38;97505.22;2090301;28;19932;-53
2022/05/29 04:40:38;;;;;;;;;;;;;;;25.82;50.32;97511.16;2086318;28;20006;-55
2022/05/29 04:41:40;;;;;;;;;;;;;;;25.79;50.42;97510.91;2085094;28;20382;-54
2022/05/29 04:42:41;;;;;;;;;;;;;;;25.79;50.19;97505.47;2089753;28;20377;-54
2022/05/29 04:43:42;;;;;;;;;;;;;;;25.81;50.04;97511.44;2089818;28;19935;-48
2022/05/29 04:44:43;;;;;;;;;;;;;;;25.78;49.84;97506.56;2088359;28;20290;-53
2022/05/29 04:45:45;;;;;;;;;;;;;;;25.78;49.98;97506.56;2090222;28;20008;-54
2022/05/29 04:46:45;;;;;;;;;;;;;;;25.76;50.14;97503.31;2090199;28;20649;-52
2022/05/29 04:47:47;;;;;;;;;;;;;;;25.78;49.98;97507.38;2087961;28;19932;-53
2022/05/29 04:48:48;;;;;;;;;;;;;;;25.78;50.17;97496.50;2088454;28;20914;-53
2022/05/29 04:49:50;;;;;;;;;;;;;;;25.80;50.32;97493.53;2087618;28;19933;-52
2022/05/29 04:50:55;;;;;;;;;;;;;;;25.81;49.90;97495.16;2089620;28;19936;-50
2022/05/29 04:51:56;;;;;;;;;;;;;;;25.80;50.11;97496.25;2088407;28;19931;-53
2022/05/29 04:52:58;;;;;;;;;;;;;;;25.79;50.09;97508.19;2088110;28;19994;-48
2022/05/29 04:54:00;;;;;;;;;;;;;;;25.78;50.62;97501.13;2087526;28;20386;-51
2022/05/29 04:55:00;;;;;;;;;;;;;;;25.80;50.50;97504.41;2089742;28;20437;-54
2022/05/29 04:56:02;;;;;;;;;;;;;;;25.80;49.87;97507.13;2086074;28;19932;-55
2022/05/29 04:57:03;;;;;;;;;;;;;;;25.78;50.18;97496.50;2084291;28;19924;-57
2022/05/29 04:58:04;;;;;;;;;;;;;;;25.78;49.95;97496.50;2087181;28;19929;-53
2022/05/29 04:59:06;;;;;;;;;;;;;;;25.80;50.19;97493.53;2087295;28;20409;-51
2022/05/29 05:00:08;;;;;;;;;;;;;;;25.79;49.66;97500.03;2088824;28;20235;-51
2022/05/29 05:01:10;;;;;;;;;;;;;;;25.78;50.03;97496.50;2087702;28;19928;-51
2022/05/29 05:02:11;;;;;;;;;;;;;;;25.78;49.53;97503.84;2087893;28;19940;-53
2022/05/29 05:03:12;;;;;;;;;;;;;;;25.78;49.98;97495.72;2089260;28;19925;-51
2022/05/29 05:04:13;;;;;;;;;;;;;;;25.79;49.63;97506.28;2088611;28;19928;-53
2022/05/29 05:05:16;;;;;;;;;;;;;;;25.78;49.55;97504.66;2089993;28;20377;-51
2022/05/29 05:06:17;;;;;;;;;;;;;;;25.80;49.78;97496.25;2087281;28;20137;-49
2022/05/29 05:07:18;;;;;;;;;;;;;;;25.77;49.90;97500.34;2089200;28;19971;-49
2022/05/29 05:08:20;;;;;;;;;;;;;;;25.78;49.95;97507.38;2088870;28;20054;-51
2022/05/29 05:09:20;;;;;;;;;;;;;;;25.78;49.86;97501.13;2087452;28;20023;-50
2022/05/29 05:10:22;;;;;;;;;;;;;;;25.79;49.36;97508.19;2088446;28;19929;-53
2022/05/29 05:11:23;;;;;;;;;;;;;;;25.76;49.66;97493.25;2085312;28;19959;-52
2022/05/29 05:12:24;;;;;;;;;;;;;;;25.77;49.35;97499.50;2084867;28;20570;-53
2022/05/29 05:13:25;;;;;;;;;;;;;;;25.78;49.52;97501.13;2089763;28;19928;-52
2022/05/29 05:14:28;;;;;;;;;;;;;;;25.77;49.53;97499.50;2088838;28;19982;-53
2022/05/29 05:15:28;;;;;;;;;;;;;;;25.76;49.52;97497.88;2087944;28;20873;-49
2022/05/29 05:16:30;;;;;;;;;;;;;;;25.74;49.29;97495.47;2086458;28;19935;-53
2022/05/29 05:17:31;;;;;;;;;;;;;;;25.74;49.50;97497.34;2086071;28;20015;-51
2022/05/29 05:18:32;;;;;;;;;;;;;;;25.72;49.22;97494.09;2086986;28;20393;-50
2022/05/29 05:19:33;;;;;;;;;;;;;;;25.74;49.25;97494.63;2085004;28;19929;-50
2022/05/29 05:20:36;;;;;;;;;;;;;;;25.77;49.52;97499.50;2084169;28;19971;-53
2022/05/29 05:21:38;;;;;;;;;;;;;;;25.76;49.46;97509.56;2088230;28;20386;-52
2022/05/29 05:22:38;;;;;;;;;;;;;;;25.75;49.54;97507.13;2086880;28;20445;-53
2022/05/29 05:23:40;;;;;;;;;;;;;;;25.75;49.42;97518.81;2088266;28;19940;-50
2022/05/29 05:24:41;;;;;;;;;;;;;;;25.73;49.17;97514.72;2088119;28;19928;-49
2022/05/29 05:25:43;;;;;;;;;;;;;;;25.73;49.31;97514.72;2083539;28;19934;-52
2022/05/29 05:26:43;;;;;;;;;;;;;;;25.74;49.67;97508.19;2081057;28;19935;-53
2022/05/29 05:27:45;;;;;;;;;;;;;;;25.75;49.42;97515.28;2067694;28;20108;-50
2022/05/29 05:28:45;;;;;;;;;;;;;;;25.74;49.59;97510.91;2082447;28;19929;-51
2022/05/29 05:29:47;;;;;;;;;;;;;;;25.74;50.03;97510.91;2081066;28;19924;-52
2022/05/29 05:30:48;;;;;;;;;;;;;;;25.75;49.58;97507.13;2088043;28;20024;-50
2022/05/29 05:31:50;;;;;;;;;;;;;;;25.74;49.79;97510.91;2076604;28;19978;-51
2022/05/29 05:32:51;;;;;;;;;;;;;;;25.76;49.57;97516.91;2081268;28;20519;-52
2022/05/29 05:33:52;;;;;;;;;;;;;;;25.75;49.88;97510.66;2076028;28;20065;-53
2022/05/29 05:34:54;;;;;;;;;;;;;;;25.76;50.12;97516.91;2089445;28;19947;-52
2022/05/29 05:35:56;;;;;;;;;;;;;;;25.76;50.34;97514.19;2085705;28;19929;-53
2022/05/29 05:36:57;;;;;;;;;;;;;;;25.77;50.04;97521.22;2084124;28;20417;-50
2022/05/29 05:37:58;;;;;;;;;;;;;;;25.77;50.46;97513.06;2084302;28;19925;-51